Monday, August 3, 2015, 2:34 AM EDT
Back to Local

KHWV, Shirley Brookhaven Airport

Location: Shirley, NY, United States Lat: 40.817
Local Time: 2:34 AM EDT ( 6:34 GMT) Lon: -72.867
Time Zone: US/Eastern Elev: 82 ft

Show me the last for .
Show Coded

Time T Td Feel RH Dir Speed Gust Alt SLP Vis Weather Sky Remarks
2015-08-03 01:56 74 70 78 87 180° 6 - 29.87 29.87 10 CLR 6-hr Min Temp (2am): 73.0°F
6-hr Max Temp (2am): 78.1°F
2015-08-03 00:56 74 71 78 90 210° 6 - 29.89 29.88 10 CLR 24-hr Min Temp (1am): 62.1°F
24-hr Max Temp (1am): 86.0°F
2015-08-02 23:56 75 70 79 84 200° 8 - 29.88 29.88 10 CLR None
2015-08-02 22:56 76 69 79 79 180° 7 - 29.89 29.88 10 CLR None
2015-08-02 21:56 75 69 79 81 180° 5 - 29.92 29.91 10 CLR None
2015-08-02 20:56 76 69 79 79 200° 5 - 29.91 29.90 10 CLR None
2015-08-02 19:56 78 68 81 71 190° 8 - 29.90 29.89 10 CLR 6-hr Min Temp (8pm): 78.1°F
6-hr Max Temp (8pm): 84.9°F
2015-08-02 18:56 80 64 82 58 180° 9 - 29.90 29.89 10 CLR None
2015-08-02 17:56 83 60 84 46 180° 10 - 29.91 29.90 10 CLR None
2015-08-02 16:56 84 58 84 41 200° 10 - 29.91 29.90 10 CLR None
2015-08-02 15:56 84 63 86 49 200° 13 - 29.92 29.91 10 CLR None
2015-08-02 14:56 82 63 84 52 200° 13 - 29.92 29.92 10 CLR None
2015-08-02 13:56 84 56 - 38 180° 12 - 29.93 29.92 10 CLR 6-hr Min Temp (2pm): 75.0°F
6-hr Max Temp (2pm): 86.0°F
2015-08-02 12:56 84 54 - 35 180° 12 - 29.94 29.93 10 CLR None
2015-08-02 11:56 84 55 - 37 170° 10 - 29.95 29.94 10 CLR None
2015-08-02 10:56 83 56 - 39 180° 7 - 29.94 29.93 10 CLR None
2015-08-02 09:56 81 56 81 42 150° 8 - 29.94 29.93 10 CLR None
2015-08-02 08:56 79 61 81 54 - Calm - 29.93 29.93 10 CLR None
2015-08-02 07:56 75 64 78 68 10° 3 - 29.92 29.91 10 CLR 6-hr Min Temp (8am): 62.1°F
6-hr Max Temp (8am): 75.0°F
2015-08-02 05:56 62 59 - 89 - Calm - 29.89 29.88 10 CLR None
2015-08-02 04:56 62 58 - 86 - Calm - 29.87 29.86 10 CLR None
2015-08-02 03:56 63 58 - 83 - Calm - 29.87 29.86 10 CLR None
2015-08-02 02:56 64 59 - 83 - Calm - 29.87 29.87 10 CLR None

Support USWX by starting your Amazon purchase here.